createdAt,value
2022-10-11T11:40:46.226Z,6.88
2022-10-11T11:43:18.276Z,8.63
2022-10-11T11:45:51.235Z,12.85
2022-10-11T11:48:25.573Z,4.22
2022-10-11T11:51:07.846Z,7.10
2022-10-11T11:53:49.318Z,9.45
2022-10-11T11:56:33.124Z,9.05
2022-10-11T11:59:25.794Z,13.07
2022-10-11T12:01:55.050Z,12.20
2022-10-11T12:04:42.376Z,12.63
2022-10-11T12:07:17.952Z,8.02
2022-10-11T12:09:47.521Z,5.97
2022-10-11T12:12:29.659Z,6.68
2022-10-11T12:15:09.194Z,5.15
2022-10-11T12:17:57.643Z,8.07
2022-10-11T12:20:33.655Z,6.15
2022-10-11T12:23:29.486Z,9.50
2022-10-11T12:26:24.242Z,8.70
2022-10-11T12:29:05.857Z,7.47
2022-10-11T12:31:36.677Z,10.97
2022-10-11T12:34:09.951Z,9.75
2022-10-11T12:36:43.173Z,7.68
2022-10-11T12:39:18.637Z,10.48
2022-10-11T12:41:48.085Z,4.40
2022-10-11T12:44:20.660Z,5.47
2022-10-11T12:46:53.075Z,6.68
2022-10-11T12:49:22.429Z,15.35
2022-10-11T12:52:05.634Z,7.65
2022-10-11T12:55:03.171Z,6.72
2022-10-11T12:57:32.571Z,7.37
2022-10-11T13:00:30.456Z,7.28
2022-10-11T13:02:59.555Z,7.88
2022-10-11T13:05:30.630Z,4.22
2022-10-11T13:08:03.103Z,12.68
2022-10-11T13:10:35.929Z,7.97
2022-10-11T13:13:06.384Z,5.85
2022-10-11T13:15:34.283Z,7.53
2022-10-11T13:18:01.339Z,5.03
2022-10-11T13:20:37.439Z,5.63
2022-10-11T13:23:39.004Z,6.10
2022-10-11T13:26:05.879Z,5.60
2022-10-11T13:28:36.251Z,5.32
2022-10-11T13:31:04.094Z,4.55
2022-10-11T13:33:33.765Z,3.05
2022-10-11T13:36:03.253Z,4.73
2022-10-11T13:38:33.606Z,6.95
2022-10-11T13:41:04.475Z,5.70
2022-10-11T13:43:32.136Z,6.22
2022-10-11T13:46:00.353Z,6.68
2022-10-11T13:48:31.594Z,9.83
2022-10-11T13:51:10.979Z,6.28
2022-10-11T13:53:37.644Z,4.63
2022-10-11T13:56:07.938Z,4.15
2022-10-11T13:58:38.955Z,5.63
2022-10-11T14:01:27.477Z,7.30
2022-10-11T14:04:01.999Z,7.00
2022-10-11T14:07:05.466Z,10.85
2022-10-11T14:09:36.820Z,9.30
2022-10-11T14:12:38.208Z,10.00
2022-10-11T14:15:23.704Z,13.37
2022-10-11T14:17:50.291Z,12.90
2022-10-11T14:20:19.652Z,8.48
2022-10-11T14:22:46.434Z,7.35
2022-10-11T14:25:13.337Z,6.32
2022-10-11T14:27:39.840Z,5.25
2022-10-11T14:30:27.304Z,7.15
2022-10-11T14:32:57.576Z,14.43
2022-10-11T14:35:26.427Z,14.48
2022-10-11T14:37:53.160Z,17.02
2022-10-11T14:40:23.727Z,11.32
2022-10-11T14:42:51.022Z,17.70
2022-10-11T14:45:18.796Z,25.52
2022-10-11T14:47:45.315Z,26.75
2022-10-11T14:50:39.569Z,35.75
2022-10-11T14:53:07.778Z,24.98
2022-10-11T14:55:39.022Z,26.70
2022-10-11T14:58:06.799Z,11.82
2022-10-11T15:00:34.945Z,13.27
2022-10-11T15:03:01.637Z,8.20
2022-10-11T15:05:33.665Z,7.35
2022-10-11T15:08:01.883Z,8.07
2022-10-11T15:10:40.625Z,7.40
2022-10-11T15:13:08.464Z,8.98
2022-10-11T15:15:36.897Z,11.18
2022-10-11T15:18:06.374Z,11.60
2022-10-11T15:20:39.770Z,12.57
2022-10-11T15:23:08.229Z,12.07
2022-10-11T15:25:35.082Z,9.57
2022-10-11T15:28:01.990Z,7.78
2022-10-11T15:30:40.953Z,12.23
2022-10-11T15:33:08.846Z,16.33
2022-10-11T15:35:35.586Z,13.43
2022-10-11T15:38:02.621Z,12.57
2022-10-11T15:40:35.177Z,14.32
2022-10-11T15:43:02.972Z,13.02
2022-10-11T15:45:30.576Z,14.48
2022-10-11T15:47:57.755Z,14.55
2022-10-11T15:50:30.748Z,15.70
2022-10-11T15:52:57.677Z,14.63
2022-10-11T15:55:24.396Z,13.65
2022-10-11T15:57:51.089Z,14.18
2022-10-11T16:00:22.110Z,15.27
2022-10-11T16:02:51.800Z,16.52
2022-10-11T16:05:23.187Z,10.45
2022-10-11T16:07:49.924Z,11.60
2022-10-11T16:10:16.819Z,10.63
2022-10-11T16:12:43.627Z,8.73
2022-10-11T16:15:10.937Z,8.23
2022-10-11T16:17:38.125Z,7.30
2022-10-11T16:20:06.451Z,10.85
2022-10-11T16:22:34.519Z,6.07
2022-10-11T16:25:02.172Z,6.20
2022-10-11T16:27:29.477Z,13.30
2022-10-11T16:29:56.237Z,6.95
2022-10-11T16:32:23.196Z,6.47
2022-10-11T16:34:50.202Z,9.15
2022-10-11T16:37:17.011Z,6.30
2022-10-11T16:39:43.859Z,6.88
2022-10-11T16:42:10.681Z,5.75
2022-10-11T16:44:37.859Z,7.22
2022-10-11T16:47:05.303Z,6.97
2022-10-11T16:49:32.066Z,6.75
2022-10-11T16:51:59.970Z,6.07
2022-10-11T16:54:27.318Z,4.32
2022-10-11T16:56:54.635Z,5.45
2022-10-11T16:59:21.402Z,13.20
2022-10-11T17:01:48.456Z,8.68
2022-10-11T17:04:15.621Z,5.60
2022-10-11T17:06:42.322Z,5.38
2022-10-11T17:09:09.077Z,7.13
2022-10-11T17:11:35.956Z,10.88
2022-10-11T17:14:03.253Z,5.72
2022-10-11T17:16:29.988Z,6.50
2022-10-11T17:18:56.824Z,7.88
2022-10-11T17:21:24.141Z,8.05
2022-10-11T17:23:51.233Z,6.32
2022-10-11T17:26:25.309Z,7.10
2022-10-11T17:28:54.517Z,6.90
2022-10-11T17:31:21.889Z,7.55
2022-10-11T17:33:48.926Z,8.80
2022-10-11T17:36:25.634Z,6.53
2022-10-11T17:38:52.771Z,9.00
2022-10-11T17:41:20.338Z,7.68
2022-10-11T17:43:47.720Z,9.77
2022-10-11T17:46:16.334Z,7.57
2022-10-11T17:48:43.521Z,9.35
2022-10-11T17:51:16.049Z,7.47
2022-10-11T17:53:43.543Z,7.20
2022-10-11T17:56:12.822Z,8.40
2022-10-11T17:58:40.040Z,10.23
2022-10-11T18:01:13.581Z,8.55
2022-10-11T18:03:40.663Z,13.20
2022-10-11T18:06:09.896Z,9.63
2022-10-11T18:08:40.779Z,9.13
2022-10-11T18:11:13.379Z,7.35
2022-10-11T18:13:40.898Z,11.25
2022-10-11T18:16:08.113Z,5.32
2022-10-11T18:18:35.980Z,10.25
2022-10-11T18:21:02.739Z,7.78
2022-10-11T18:23:29.539Z,8.10
2022-10-11T18:25:56.244Z,7.45
2022-10-11T18:28:23.165Z,7.97
2022-10-11T18:30:51.083Z,9.70
2022-10-11T18:33:17.775Z,10.05
2022-10-11T18:35:44.559Z,8.15
2022-10-11T18:38:11.278Z,9.45
2022-10-11T18:40:43.451Z,14.52
2022-10-11T18:43:13.023Z,8.50
2022-10-11T18:45:39.701Z,9.85
2022-10-11T18:48:06.431Z,13.25
2022-10-11T18:50:33.213Z,6.85
2022-10-11T18:52:59.939Z,11.73
2022-10-11T18:55:26.698Z,10.85
2022-10-11T18:57:53.598Z,8.27
2022-10-11T19:00:39.603Z,9.45
2022-10-11T19:03:07.083Z,10.35
2022-10-11T19:05:33.802Z,10.38
2022-10-11T19:08:00.525Z,12.13
2022-10-11T19:10:27.317Z,8.00
2022-10-11T19:12:54.038Z,9.18
2022-10-11T19:15:23.185Z,8.50
2022-10-11T19:17:52.058Z,9.60
2022-10-11T19:20:18.747Z,9.20
2022-10-11T19:22:45.433Z,18.17
2022-10-11T19:25:12.199Z,11.68
2022-10-11T19:27:38.905Z,12.43
2022-10-11T19:30:06.409Z,9.82
2022-10-11T19:32:33.147Z,13.50
2022-10-11T19:34:59.835Z,10.95
2022-10-11T19:37:26.550Z,14.63
2022-10-11T19:39:53.367Z,15.05
2022-10-11T19:42:20.081Z,16.88
2022-10-11T19:44:46.780Z,13.68
2022-10-11T19:47:13.574Z,13.43
2022-10-11T19:49:40.257Z,22.27
2022-10-11T19:52:07.045Z,14.73
2022-10-11T19:54:33.814Z,14.60
2022-10-11T19:57:00.568Z,13.32
2022-10-11T19:59:27.262Z,11.82
2022-10-11T20:01:54.146Z,16.52
2022-10-11T20:07:08.608Z,15.02
2022-10-11T20:09:35.356Z,16.48
2022-10-11T20:12:02.061Z,16.83
2022-10-11T20:14:29.773Z,15.15
2022-10-11T20:16:56.495Z,17.05
2022-10-11T20:19:29.350Z,11.38
2022-10-11T20:21:57.627Z,12.65
2022-10-11T20:24:24.363Z,17.80
2022-10-11T20:26:51.058Z,18.80
2022-10-11T20:29:18.541Z,14.55
2022-10-11T20:31:47.172Z,16.23
2022-10-11T20:34:14.104Z,14.55
2022-10-11T20:36:42.198Z,15.50
2022-10-11T20:39:10.618Z,13.73
2022-10-11T20:41:38.349Z,15.20
2022-10-11T20:44:06.078Z,16.55
2022-10-11T20:46:35.104Z,28.17
2022-10-11T20:49:05.381Z,20.90
2022-10-11T20:51:34.273Z,21.52
2022-10-11T20:54:01.172Z,28.55
2022-10-11T20:56:28.091Z,27.30
2022-10-11T20:58:56.507Z,26.90
2022-10-11T21:01:26.303Z,28.98
2022-10-11T21:03:53.618Z,25.25
2022-10-11T21:06:20.452Z,26.35
2022-10-11T21:08:47.232Z,26.70
2022-10-11T21:11:13.967Z,28.50
2022-10-11T21:13:41.181Z,27.17
2022-10-11T21:16:13.295Z,26.90
2022-10-11T21:18:40.619Z,33.30
2022-10-11T21:21:10.192Z,27.58
2022-10-11T21:23:37.001Z,32.97
2022-10-11T21:26:08.163Z,32.60
2022-10-11T21:28:35.313Z,35.85
2022-10-11T21:31:05.407Z,35.88
2022-10-11T21:33:33.271Z,30.88
2022-10-11T21:36:04.768Z,28.08
2022-10-11T21:38:31.740Z,39.13
2022-10-11T21:40:58.453Z,20.50
2022-10-11T21:43:25.273Z,27.85
2022-10-11T21:45:51.971Z,30.50
2022-10-11T21:48:18.669Z,32.03
2022-10-11T21:50:52.961Z,29.83
2022-10-11T21:53:19.663Z,25.38
2022-10-11T21:55:46.449Z,33.28
2022-10-11T21:58:13.924Z,30.77
2022-10-11T22:00:40.612Z,25.30
2022-10-11T22:03:07.552Z,27.30
2022-10-11T22:05:34.319Z,31.85
2022-10-11T22:08:01.032Z,21.35
2022-10-11T22:10:27.725Z,20.52
2022-10-11T22:12:55.005Z,21.55
2022-10-11T22:15:21.690Z,24.20
2022-10-11T22:17:48.375Z,29.13
2022-10-11T22:20:15.934Z,22.60
2022-10-11T22:22:42.621Z,22.30
2022-10-11T22:25:09.404Z,22.65
2022-10-11T22:27:37.082Z,23.03
2022-10-11T22:30:04.011Z,21.50
2022-10-11T22:32:30.938Z,18.98
2022-10-11T22:34:58.034Z,23.38
2022-10-11T22:37:24.697Z,23.35
2022-10-11T22:39:51.421Z,29.87
2022-10-11T22:42:18.305Z,21.27
2022-10-11T22:44:44.861Z,22.55
2022-10-11T22:47:11.352Z,25.27
2022-10-11T22:49:37.874Z,22.83
2022-10-11T22:52:04.471Z,21.57
2022-10-11T22:54:30.936Z,23.90
2022-10-11T22:56:57.531Z,31.38
2022-10-11T22:59:24.041Z,29.08
2022-10-11T23:01:50.508Z,27.17
2022-10-11T23:04:17.990Z,28.27
2022-10-11T23:06:44.453Z,31.17
2022-10-11T23:09:10.927Z,22.25
2022-10-11T23:11:55.846Z,27.73
2022-10-11T23:14:23.885Z,20.50
2022-10-11T23:16:51.319Z,21.87
2022-10-11T23:19:18.017Z,23.27
2022-10-11T23:21:44.491Z,22.92
2022-10-11T23:24:11.102Z,23.65
2022-10-11T23:26:37.660Z,24.80
2022-10-11T23:29:04.139Z,23.50
2022-10-11T23:31:30.806Z,28.50
2022-10-11T23:33:57.727Z,24.58
2022-10-11T23:36:26.406Z,19.60
2022-10-11T23:38:54.536Z,26.05
2022-10-11T23:41:22.218Z,30.93
2022-10-11T23:43:48.823Z,36.22
2022-10-11T23:46:15.480Z,33.42
2022-10-11T23:48:42.249Z,34.00
2022-10-11T23:51:09.735Z,29.33
2022-10-11T23:53:36.484Z,26.00
2022-10-11T23:56:04.000Z,27.00
2022-10-11T23:58:30.499Z,28.80
